sensor_id;sensor_type;location;lat;lon;timestamp;temperature;humidity
2825;DHT22;1420;51.324;12.344;2023-05-07T00:02:02;9.40;99.90
2825;DHT22;1420;51.324;12.344;2023-05-07T00:04:29;9.40;99.90
2825;DHT22;1420;51.324;12.344;2023-05-07T00:06:56;9.50;99.90
2825;DHT22;1420;51.324;12.344;2023-05-07T00:09:24;9.30;99.90
2825;DHT22;1420;51.324;12.344;2023-05-07T00:11:51;9.40;99.90
2825;DHT22;1420;51.324;12.344;2023-05-07T00:14:18;9.30;99.90
2825;DHT22;1420;51.324;12.344;2023-05-07T00:16:45;9.30;99.90
2825;DHT22;1420;51.324;12.344;2023-05-07T00:19:13;9.20;99.90
2825;DHT22;1420;51.324;12.344;2023-05-07T00:21:41;9.20;99.90
2825;DHT22;1420;51.324;12.344;2023-05-07T00:24:08;9.20;99.90
2825;DHT22;1420;51.324;12.344;2023-05-07T00:26:35;9.40;99.90
2825;DHT22;1420;51.324;12.344;2023-05-07T00:29:02;9.30;99.90
2825;DHT22;1420;51.324;12.344;2023-05-07T00:31:29;9.30;99.90
2825;DHT22;1420;51.324;12.344;2023-05-07T00:33:57;9.30;99.90
2825;DHT22;1420;51.324;12.344;2023-05-07T00:36:24;9.40;99.90
2825;DHT22;1420;51.324;12.344;2023-05-07T00:38:53;9.30;99.90
2825;DHT22;1420;51.324;12.344;2023-05-07T00:41:20;9.30;99.90
2825;DHT22;1420;51.324;12.344;2023-05-07T00:43:47;9.20;99.90
2825;DHT22;1420;51.324;12.344;2023-05-07T00:46:15;9.30;99.90
2825;DHT22;1420;51.324;12.344;2023-05-07T00:48:42;9.30;99.90
2825;DHT22;1420;51.324;12.344;2023-05-07T00:51:10;9.30;99.90
2825;DHT22;1420;51.324;12.344;2023-05-07T00:53:37;9.30;99.90
2825;DHT22;1420;51.324;12.344;2023-05-07T00:56:05;9.40;99.90
2825;DHT22;1420;51.324;12.344;2023-05-07T00:58:32;9.30;99.90
2825;DHT22;1420;51.324;12.344;2023-05-07T01:01:00;9.40;99.90
2825;DHT22;1420;51.324;12.344;2023-05-07T01:03:28;9.40;99.90
2825;DHT22;1420;51.324;12.344;2023-05-07T01:05:55;9.40;99.90
2825;DHT22;1420;51.324;12.344;2023-05-07T01:08:22;9.50;99.90
2825;DHT22;1420;51.324;12.344;2023-05-07T01:10:50;9.50;99.90
2825;DHT22;1420;51.324;12.344;2023-05-07T01:13:18;9.40;99.90
2825;DHT22;1420;51.324;12.344;2023-05-07T01:15:46;9.60;99.90
2825;DHT22;1420;51.324;12.344;2023-05-07T01:18:13;9.50;99.90
2825;DHT22;1420;51.324;12.344;2023-05-07T01:20:40;9.40;99.90
2825;DHT22;1420;51.324;12.344;2023-05-07T01:23:07;9.40;99.90
2825;DHT22;1420;51.324;12.344;2023-05-07T01:25:35;9.30;99.90
2825;DHT22;1420;51.324;12.344;2023-05-07T01:28:02;9.20;99.90
2825;DHT22;1420;51.324;12.344;2023-05-07T01:30:30;9.20;99.90
2825;DHT22;1420;51.324;12.344;2023-05-07T01:32:59;9.40;99.90
2825;DHT22;1420;51.324;12.344;2023-05-07T01:35:28;9.40;99.90
2825;DHT22;1420;51.324;12.344;2023-05-07T01:37:52;9.30;99.90
2825;DHT22;1420;51.324;12.344;2023-05-07T01:40:20;9.40;99.90
2825;DHT22;1420;51.324;12.344;2023-05-07T01:42:47;9.30;99.90
2825;DHT22;1420;51.324;12.344;2023-05-07T01:45:15;9.40;99.90
2825;DHT22;1420;51.324;12.344;2023-05-07T01:47:43;9.40;99.90
2825;DHT22;1420;51.324;12.344;2023-05-07T01:50:10;9.40;99.90
2825;DHT22;1420;51.324;12.344;2023-05-07T01:52:38;9.40;99.90
2825;DHT22;1420;51.324;12.344;2023-05-07T01:55:06;9.30;99.90
2825;DHT22;1420;51.324;12.344;2023-05-07T01:57:34;9.30;99.90
2825;DHT22;1420;51.324;12.344;2023-05-07T02:00:01;9.30;99.90
2825;DHT22;1420;51.324;12.344;2023-05-07T02:02:29;9.30;99.90
2825;DHT22;1420;51.324;12.344;2023-05-07T02:04:56;9.30;99.90
2825;DHT22;1420;51.324;12.344;2023-05-07T02:07:23;9.30;99.90
2825;DHT22;1420;51.324;12.344;2023-05-07T02:09:50;9.30;99.90
2825;DHT22;1420;51.324;12.344;2023-05-07T02:12:18;9.50;99.90
2825;DHT22;1420;51.324;12.344;2023-05-07T02:14:46;9.50;99.90
2825;DHT22;1420;51.324;12.344;2023-05-07T02:17:14;9.40;99.90
2825;DHT22;1420;51.324;12.344;2023-05-07T02:19:41;9.50;99.90
2825;DHT22;1420;51.324;12.344;2023-05-07T02:22:09;9.30;99.90
2825;DHT22;1420;51.324;12.344;2023-05-07T02:24:35;9.20;99.90
2825;DHT22;1420;51.324;12.344;2023-05-07T02:27:03;9.10;99.90
2825;DHT22;1420;51.324;12.344;2023-05-07T02:29:30;9.10;99.90
2825;DHT22;1420;51.324;12.344;2023-05-07T02:31:57;9.10;99.90
2825;DHT22;1420;51.324;12.344;2023-05-07T02:34:24;9.20;99.90
2825;DHT22;1420;51.324;12.344;2023-05-07T02:36:51;9.20;99.90
2825;DHT22;1420;51.324;12.344;2023-05-07T02:39:19;9.30;99.90
2825;DHT22;1420;51.324;12.344;2023-05-07T02:41:46;9.20;99.90
2825;DHT22;1420;51.324;12.344;2023-05-07T02:44:13;9.30;99.90
2825;DHT22;1420;51.324;12.344;2023-05-07T02:46:40;9.20;99.90
2825;DHT22;1420;51.324;12.344;2023-05-07T02:49:07;9.30;99.90
2825;DHT22;1420;51.324;12.344;2023-05-07T02:51:35;9.30;99.90
2825;DHT22;1420;51.324;12.344;2023-05-07T02:54:02;9.40;99.90
2825;DHT22;1420;51.324;12.344;2023-05-07T02:56:30;9.20;99.90
2825;DHT22;1420;51.324;12.344;2023-05-07T02:58:57;9.20;99.90
2825;DHT22;1420;51.324;12.344;2023-05-07T03:01:24;9.20;99.90
2825;DHT22;1420;51.324;12.344;2023-05-07T03:03:52;9.20;99.90
2825;DHT22;1420;51.324;12.344;2023-05-07T03:06:19;9.30;99.90
2825;DHT22;1420;51.324;12.344;2023-05-07T03:08:46;9.10;99.90
2825;DHT22;1420;51.324;12.344;2023-05-07T03:11:13;9.10;99.90
2825;DHT22;1420;51.324;12.344;2023-05-07T03:13:40;9.00;99.90
2825;DHT22;1420;51.324;12.344;2023-05-07T03:16:08;9.00;99.90
2825;DHT22;1420;51.324;12.344;2023-05-07T03:18:35;9.10;99.90
2825;DHT22;1420;51.324;12.344;2023-05-07T03:21:02;9.00;99.90
2825;DHT22;1420;51.324;12.344;2023-05-07T03:23:29;9.00;99.90
2825;DHT22;1420;51.324;12.344;2023-05-07T03:25:57;9.00;99.90
2825;DHT22;1420;51.324;12.344;2023-05-07T03:28:24;9.00;99.90
2825;DHT22;1420;51.324;12.344;2023-05-07T03:30:51;9.10;99.90
2825;DHT22;1420;51.324;12.344;2023-05-07T03:33:18;9.00;99.90
2825;DHT22;1420;51.324;12.344;2023-05-07T03:35:45;9.10;99.90
2825;DHT22;1420;51.324;12.344;2023-05-07T03:38:13;9.20;99.90
2825;DHT22;1420;51.324;12.344;2023-05-07T03:40:40;9.10;99.90
2825;DHT22;1420;51.324;12.344;2023-05-07T03:43:08;9.10;99.90
2825;DHT22;1420;51.324;12.344;2023-05-07T03:45:35;9.00;99.90
2825;DHT22;1420;51.324;12.344;2023-05-07T03:48:02;9.10;99.90
2825;DHT22;1420;51.324;12.344;2023-05-07T03:50:30;9.00;99.90
2825;DHT22;1420;51.324;12.344;2023-05-07T03:52:57;9.10;99.90
2825;DHT22;1420;51.324;12.344;2023-05-07T03:55:24;9.00;99.90
2825;DHT22;1420;51.324;12.344;2023-05-07T03:57:51;9.00;99.90
2825;DHT22;1420;51.324;12.344;2023-05-07T04:00:19;9.10;99.90
2825;DHT22;1420;51.324;12.344;2023-05-07T04:02:46;9.20;99.90
2825;DHT22;1420;51.324;12.344;2023-05-07T04:05:13;9.20;99.90
2825;DHT22;1420;51.324;12.344;2023-05-07T04:07:40;9.20;99.90
2825;DHT22;1420;51.324;12.344;2023-05-07T04:10:08;9.20;99.90
2825;DHT22;1420;51.324;12.344;2023-05-07T04:12:36;9.20;99.90
2825;DHT22;1420;51.324;12.344;2023-05-07T04:15:03;9.20;99.90
2825;DHT22;1420;51.324;12.344;2023-05-07T04:17:31;9.40;99.90
2825;DHT22;1420;51.324;12.344;2023-05-07T04:19:59;9.40;99.90
2825;DHT22;1420;51.324;12.344;2023-05-07T04:22:26;9.50;99.90
2825;DHT22;1420;51.324;12.344;2023-05-07T04:24:53;9.30;99.90
2825;DHT22;1420;51.324;12.344;2023-05-07T04:27:21;9.30;99.90
2825;DHT22;1420;51.324;12.344;2023-05-07T04:29:48;9.40;99.90
2825;DHT22;1420;51.324;12.344;2023-05-07T04:32:16;9.50;99.90
2825;DHT22;1420;51.324;12.344;2023-05-07T04:34:43;9.40;99.90
2825;DHT22;1420;51.324;12.344;2023-05-07T04:37:10;9.40;99.90
2825;DHT22;1420;51.324;12.344;2023-05-07T04:39:37;9.60;99.90
2825;DHT22;1420;51.324;12.344;2023-05-07T04:42:04;9.50;99.90
2825;DHT22;1420;51.324;12.344;2023-05-07T04:44:32;9.50;99.90
2825;DHT22;1420;51.324;12.344;2023-05-07T04:46:59;9.50;99.90
2825;DHT22;1420;51.324;12.344;2023-05-07T04:49:26;9.50;99.90
2825;DHT22;1420;51.324;12.344;2023-05-07T04:51:53;9.40;99.90
2825;DHT22;1420;51.324;12.344;2023-05-07T04:54:21;9.40;99.90
2825;DHT22;1420;51.324;12.344;2023-05-07T04:56:48;9.50;99.90
2825;DHT22;1420;51.324;12.344;2023-05-07T04:59:15;9.40;99.90
2825;DHT22;1420;51.324;12.344;2023-05-07T05:01:42;9.50;99.90
2825;DHT22;1420;51.324;12.344;2023-05-07T05:04:09;9.50;99.90
2825;DHT22;1420;51.324;12.344;2023-05-07T05:06:37;9.50;99.90
2825;DHT22;1420;51.324;12.344;2023-05-07T05:09:04;9.50;99.90
2825;DHT22;1420;51.324;12.344;2023-05-07T05:11:31;9.40;99.90
2825;DHT22;1420;51.324;12.344;2023-05-07T05:13:59;9.50;99.90
2825;DHT22;1420;51.324;12.344;2023-05-07T05:16:26;9.40;99.90
2825;DHT22;1420;51.324;12.344;2023-05-07T05:18:53;9.50;99.90
2825;DHT22;1420;51.324;12.344;2023-05-07T05:21:21;9.40;99.90
2825;DHT22;1420;51.324;12.344;2023-05-07T05:23:49;9.30;99.90
2825;DHT22;1420;51.324;12.344;2023-05-07T05:26:17;9.30;99.90
2825;DHT22;1420;51.324;12.344;2023-05-07T05:28:44;9.20;99.90
2825;DHT22;1420;51.324;12.344;2023-05-07T05:31:11;9.30;99.90
2825;DHT22;1420;51.324;12.344;2023-05-07T05:33:38;9.40;99.90
2825;DHT22;1420;51.324;12.344;2023-05-07T05:36:06;9.40;99.90
2825;DHT22;1420;51.324;12.344;2023-05-07T05:38:33;9.40;99.90
2825;DHT22;1420;51.324;12.344;2023-05-07T05:41:01;9.50;99.90
2825;DHT22;1420;51.324;12.344;2023-05-07T05:43:28;9.50;99.90
2825;DHT22;1420;51.324;12.344;2023-05-07T05:45:56;9.60;99.90
2825;DHT22;1420;51.324;12.344;2023-05-07T05:48:23;9.60;99.90
2825;DHT22;1420;51.324;12.344;2023-05-07T05:50:50;9.60;99.90
2825;DHT22;1420;51.324;12.344;2023-05-07T05:53:17;9.60;99.90
2825;DHT22;1420;51.324;12.344;2023-05-07T05:55:44;9.60;99.90
2825;DHT22;1420;51.324;12.344;2023-05-07T05:58:11;9.50;99.90
2825;DHT22;1420;51.324;12.344;2023-05-07T06:00:39;9.50;99.90
2825;DHT22;1420;51.324;12.344;2023-05-07T06:03:06;9.60;99.90
2825;DHT22;1420;51.324;12.344;2023-05-07T06:05:34;9.70;99.90
2825;DHT22;1420;51.324;12.344;2023-05-07T06:08:01;9.60;99.90
2825;DHT22;1420;51.324;12.344;2023-05-07T06:10:29;9.80;99.90
2825;DHT22;1420;51.324;12.344;2023-05-07T06:12:56;9.70;99.90
2825;DHT22;1420;51.324;12.344;2023-05-07T06:15:23;9.80;99.90
2825;DHT22;1420;51.324;12.344;2023-05-07T06:17:51;9.90;99.90
2825;DHT22;1420;51.324;12.344;2023-05-07T06:20:18;9.80;99.90
2825;DHT22;1420;51.324;12.344;2023-05-07T06:22:45;9.70;99.90
2825;DHT22;1420;51.324;12.344;2023-05-07T06:25:12;9.60;99.90
2825;DHT22;1420;51.324;12.344;2023-05-07T06:27:40;9.50;99.90
2825;DHT22;1420;51.324;12.344;2023-05-07T06:30:08;9.80;99.90
2825;DHT22;1420;51.324;12.344;2023-05-07T06:32:36;9.70;99.90
2825;DHT22;1420;51.324;12.344;2023-05-07T06:35:03;9.70;99.90
2825;DHT22;1420;51.324;12.344;2023-05-07T06:37:30;9.70;99.90
2825;DHT22;1420;51.324;12.344;2023-05-07T06:39:57;9.70;99.90
2825;DHT22;1420;51.324;12.344;2023-05-07T06:42:25;9.90;99.90
2825;DHT22;1420;51.324;12.344;2023-05-07T06:44:53;10.00;99.90
2825;DHT22;1420;51.324;12.344;2023-05-07T06:47:21;9.90;99.90
2825;DHT22;1420;51.324;12.344;2023-05-07T06:49:48;10.00;99.90
2825;DHT22;1420;51.324;12.344;2023-05-07T06:52:15;10.00;99.90
2825;DHT22;1420;51.324;12.344;2023-05-07T06:54:42;10.00;99.90
2825;DHT22;1420;51.324;12.344;2023-05-07T06:57:10;10.00;99.90
2825;DHT22;1420;51.324;12.344;2023-05-07T06:59:38;10.00;99.90
2825;DHT22;1420;51.324;12.344;2023-05-07T07:02:05;9.90;99.90
2825;DHT22;1420;51.324;12.344;2023-05-07T07:04:33;10.00;99.90
2825;DHT22;1420;51.324;12.344;2023-05-07T07:07:00;10.00;99.90
2825;DHT22;1420;51.324;12.344;2023-05-07T07:09:27;10.10;99.90
2825;DHT22;1420;51.324;12.344;2023-05-07T07:11:54;10.30;99.90
2825;DHT22;1420;51.324;12.344;2023-05-07T07:14:22;10.40;99.90
2825;DHT22;1420;51.324;12.344;2023-05-07T07:16:49;10.40;99.90
2825;DHT22;1420;51.324;12.344;2023-05-07T07:19:16;10.60;99.90
2825;DHT22;1420;51.324;12.344;2023-05-07T07:21:43;10.60;99.90
2825;DHT22;1420;51.324;12.344;2023-05-07T07:24:10;10.60;99.90
2825;DHT22;1420;51.324;12.344;2023-05-07T07:26:38;10.70;99.90
2825;DHT22;1420;51.324;12.344;2023-05-07T07:29:05;11.00;99.90
2825;DHT22;1420;51.324;12.344;2023-05-07T07:31:33;10.60;99.90
2825;DHT22;1420;51.324;12.344;2023-05-07T07:34:00;10.60;99.90
2825;DHT22;1420;51.324;12.344;2023-05-07T07:36:27;10.50;99.90
2825;DHT22;1420;51.324;12.344;2023-05-07T07:38:55;10.40;99.90
2825;DHT22;1420;51.324;12.344;2023-05-07T07:41:23;10.30;99.90
2825;DHT22;1420;51.324;12.344;2023-05-07T07:43:50;10.20;99.90
2825;DHT22;1420;51.324;12.344;2023-05-07T07:46:17;10.20;99.90
2825;DHT22;1420;51.324;12.344;2023-05-07T07:48:44;10.20;99.90
2825;DHT22;1420;51.324;12.344;2023-05-07T07:51:12;10.30;99.90
2825;DHT22;1420;51.324;12.344;2023-05-07T07:53:39;10.30;99.90
2825;DHT22;1420;51.324;12.344;2023-05-07T07:56:06;10.20;99.90
2825;DHT22;1420;51.324;12.344;2023-05-07T07:58:33;10.20;99.90
2825;DHT22;1420;51.324;12.344;2023-05-07T08:01:01;10.50;99.90
2825;DHT22;1420;51.324;12.344;2023-05-07T08:03:28;10.50;99.90
2825;DHT22;1420;51.324;12.344;2023-05-07T08:05:56;10.60;99.90
2825;DHT22;1420;51.324;12.344;2023-05-07T08:08:23;10.70;99.90
2825;DHT22;1420;51.324;12.344;2023-05-07T08:10:51;10.60;99.90
2825;DHT22;1420;51.324;12.344;2023-05-07T08:13:19;10.50;99.90
2825;DHT22;1420;51.324;12.344;2023-05-07T08:15:46;10.50;99.90
2825;DHT22;1420;51.324;12.344;2023-05-07T08:18:14;10.60;99.90
2825;DHT22;1420;51.324;12.344;2023-05-07T08:20:41;10.70;99.90
2825;DHT22;1420;51.324;12.344;2023-05-07T08:23:08;10.70;99.90
2825;DHT22;1420;51.324;12.344;2023-05-07T08:25:37;10.60;99.90
2825;DHT22;1420;51.324;12.344;2023-05-07T08:28:04;10.60;99.90
2825;DHT22;1420;51.324;12.344;2023-05-07T08:30:31;10.70;99.90
2825;DHT22;1420;51.324;12.344;2023-05-07T08:32:59;10.70;99.90
2825;DHT22;1420;51.324;12.344;2023-05-07T08:35:25;10.70;99.90
2825;DHT22;1420;51.324;12.344;2023-05-07T08:37:53;10.60;99.90
2825;DHT22;1420;51.324;12.344;2023-05-07T08:40:25;10.60;99.90
2825;DHT22;1420;51.324;12.344;2023-05-07T08:42:52;10.60;99.90
2825;DHT22;1420;51.324;12.344;2023-05-07T08:45:17;10.60;99.90
2825;DHT22;1420;51.324;12.344;2023-05-07T08:47:49;10.60;99.90
2825;DHT22;1420;51.324;12.344;2023-05-07T08:50:14;10.80;99.90
2825;DHT22;1420;51.324;12.344;2023-05-07T08:52:42;10.90;99.90
2825;DHT22;1420;51.324;12.344;2023-05-07T08:55:09;10.90;99.90
2825;DHT22;1420;51.324;12.344;2023-05-07T08:57:36;10.70;99.90
2825;DHT22;1420;51.324;12.344;2023-05-07T09:00:04;10.70;99.90
2825;DHT22;1420;51.324;12.344;2023-05-07T09:02:31;10.70;99.90
2825;DHT22;1420;51.324;12.344;2023-05-07T09:04:58;10.90;99.90
2825;DHT22;1420;51.324;12.344;2023-05-07T09:07:26;10.70;99.90
2825;DHT22;1420;51.324;12.344;2023-05-07T09:09:53;10.90;99.90
2825;DHT22;1420;51.324;12.344;2023-05-07T09:12:21;11.20;99.90
2825;DHT22;1420;51.324;12.344;2023-05-07T09:14:48;11.10;99.90
2825;DHT22;1420;51.324;12.344;2023-05-07T09:17:15;11.10;99.90
2825;DHT22;1420;51.324;12.344;2023-05-07T09:19:44;11.20;99.90
2825;DHT22;1420;51.324;12.344;2023-05-07T09:22:10;11.40;99.90
2825;DHT22;1420;51.324;12.344;2023-05-07T09:24:38;11.00;99.90
2825;DHT22;1420;51.324;12.344;2023-05-07T09:27:06;10.90;99.90
2825;DHT22;1420;51.324;12.344;2023-05-07T09:29:33;11.00;99.90
2825;DHT22;1420;51.324;12.344;2023-05-07T09:32:01;10.90;99.90
2825;DHT22;1420;51.324;12.344;2023-05-07T09:34:29;10.70;99.90
2825;DHT22;1420;51.324;12.344;2023-05-07T09:36:55;10.80;99.90
2825;DHT22;1420;51.324;12.344;2023-05-07T09:39:23;10.80;99.90
2825;DHT22;1420;51.324;12.344;2023-05-07T09:41:50;10.80;99.90
2825;DHT22;1420;51.324;12.344;2023-05-07T09:44:18;11.00;99.90
2825;DHT22;1420;51.324;12.344;2023-05-07T09:46:45;11.50;99.90
2825;DHT22;1420;51.324;12.344;2023-05-07T09:49:16;11.60;99.90
2825;DHT22;1420;51.324;12.344;2023-05-07T09:51:43;11.50;99.90
2825;DHT22;1420;51.324;12.344;2023-05-07T09:54:08;11.70;99.90
2825;DHT22;1420;51.324;12.344;2023-05-07T09:56:36;11.80;99.90
2825;DHT22;1420;51.324;12.344;2023-05-07T09:59:03;12.00;99.90
2825;DHT22;1420;51.324;12.344;2023-05-07T10:01:32;12.30;99.90
2825;DHT22;1420;51.324;12.344;2023-05-07T10:03:59;12.30;99.90
2825;DHT22;1420;51.324;12.344;2023-05-07T10:06:26;12.40;99.90
2825;DHT22;1420;51.324;12.344;2023-05-07T10:08:53;12.20;99.90
2825;DHT22;1420;51.324;12.344;2023-05-07T10:11:21;12.50;99.90
2825;DHT22;1420;51.324;12.344;2023-05-07T10:13:48;12.30;99.90
2825;DHT22;1420;51.324;12.344;2023-05-07T10:16:15;12.30;99.90
2825;DHT22;1420;51.324;12.344;2023-05-07T10:18:43;12.40;99.90
2825;DHT22;1420;51.324;12.344;2023-05-07T10:21:12;12.40;99.90
2825;DHT22;1420;51.324;12.344;2023-05-07T10:23:38;12.70;99.90
2825;DHT22;1420;51.324;12.344;2023-05-07T10:26:06;12.60;99.90
2825;DHT22;1420;51.324;12.344;2023-05-07T10:28:36;12.50;99.90
2825;DHT22;1420;51.324;12.344;2023-05-07T10:34:07;12.80;99.90
2825;DHT22;1420;51.324;12.344;2023-05-07T10:36:30;12.90;99.90
2825;DHT22;1420;51.324;12.344;2023-05-07T10:38:58;12.40;99.90
2825;DHT22;1420;51.324;12.344;2023-05-07T10:41:26;12.40;99.90
2825;DHT22;1420;51.324;12.344;2023-05-07T10:43:54;12.40;99.90
2825;DHT22;1420;51.324;12.344;2023-05-07T10:46:21;12.40;99.90
2825;DHT22;1420;51.324;12.344;2023-05-07T10:49:07;12.10;99.90
2825;DHT22;1420;51.324;12.344;2023-05-07T10:51:35;12.30;99.90
2825;DHT22;1420;51.324;12.344;2023-05-07T10:56:52;11.60;99.90
2825;DHT22;1420;51.324;12.344;2023-05-07T10:59:35;11.60;99.90
2825;DHT22;1420;51.324;12.344;2023-05-07T11:02:02;11.80;99.90
2825;DHT22;1420;51.324;12.344;2023-05-07T11:04:29;11.70;99.90
2825;DHT22;1420;51.324;12.344;2023-05-07T11:07:23;11.60;99.90
2825;DHT22;1420;51.324;12.344;2023-05-07T11:09:54;11.60;99.90
2825;DHT22;1420;51.324;12.344;2023-05-07T11:12:46;11.50;99.90
2825;DHT22;1420;51.324;12.344;2023-05-07T11:15:13;11.50;99.90
2825;DHT22;1420;51.324;12.344;2023-05-07T11:17:57;11.50;99.90
2825;DHT22;1420;51.324;12.344;2023-05-07T11:23:03;11.50;99.90
2825;DHT22;1420;51.324;12.344;2023-05-07T11:25:30;11.80;99.90
2825;DHT22;1420;51.324;12.344;2023-05-07T11:28:03;12.00;99.90
2825;DHT22;1420;51.324;12.344;2023-05-07T11:30:24;12.10;99.90
2825;DHT22;1420;51.324;12.344;2023-05-07T11:32:52;12.30;99.90
2825;DHT22;1420;51.324;12.344;2023-05-07T11:35:20;12.30;99.90
2825;DHT22;1420;51.324;12.344;2023-05-07T11:37:47;12.30;99.90
2825;DHT22;1420;51.324;12.344;2023-05-07T11:40:14;12.20;99.90
2825;DHT22;1420;51.324;12.344;2023-05-07T11:42:41;12.20;99.90
2825;DHT22;1420;51.324;12.344;2023-05-07T11:45:09;11.90;99.90
2825;DHT22;1420;51.324;12.344;2023-05-07T11:47:36;12.00;99.90
2825;DHT22;1420;51.324;12.344;2023-05-07T11:50:04;11.90;99.90
2825;DHT22;1420;51.324;12.344;2023-05-07T11:52:32;12.10;99.90
2825;DHT22;1420;51.324;12.344;2023-05-07T11:55:00;12.30;99.90
2825;DHT22;1420;51.324;12.344;2023-05-07T11:57:27;12.20;99.90
2825;DHT22;1420;51.324;12.344;2023-05-07T11:59:54;12.20;99.90
2825;DHT22;1420;51.324;12.344;2023-05-07T12:02:21;12.20;99.90
2825;DHT22;1420;51.324;12.344;2023-05-07T12:04:48;12.10;99.90
2825;DHT22;1420;51.324;12.344;2023-05-07T12:07:16;11.90;99.90
2825;DHT22;1420;51.324;12.344;2023-05-07T12:09:44;11.90;99.90
2825;DHT22;1420;51.324;12.344;2023-05-07T12:12:10;12.00;99.90
2825;DHT22;1420;51.324;12.344;2023-05-07T12:14:38;12.10;99.90
2825;DHT22;1420;51.324;12.344;2023-05-07T12:17:05;12.10;99.90
2825;DHT22;1420;51.324;12.344;2023-05-07T12:19:32;12.10;99.90
2825;DHT22;1420;51.324;12.344;2023-05-07T12:21:59;11.90;99.90
2825;DHT22;1420;51.324;12.344;2023-05-07T12:24:26;11.90;99.90
2825;DHT22;1420;51.324;12.344;2023-05-07T12:26:53;12.20;99.90
2825;DHT22;1420;51.324;12.344;2023-05-07T12:29:22;12.40;99.90
2825;DHT22;1420;51.324;12.344;2023-05-07T12:31:50;12.60;99.90
2825;DHT22;1420;51.324;12.344;2023-05-07T12:34:17;12.70;99.90
2825;DHT22;1420;51.324;12.344;2023-05-07T12:36:44;13.00;99.90
2825;DHT22;1420;51.324;12.344;2023-05-07T12:39:11;12.90;99.90
2825;DHT22;1420;51.324;12.344;2023-05-07T12:44:18;12.80;99.90
2825;DHT22;1420;51.324;12.344;2023-05-07T12:46:46;12.90;99.90
2825;DHT22;1420;51.324;12.344;2023-05-07T12:49:13;13.00;99.90
2825;DHT22;1420;51.324;12.344;2023-05-07T12:51:40;13.00;99.90
2825;DHT22;1420;51.324;12.344;2023-05-07T12:54:07;12.70;99.90
2825;DHT22;1420;51.324;12.344;2023-05-07T12:56:36;12.80;99.90
2825;DHT22;1420;51.324;12.344;2023-05-07T12:59:03;12.70;99.90
2825;DHT22;1420;51.324;12.344;2023-05-07T13:01:31;12.90;99.90
2825;DHT22;1420;51.324;12.344;2023-05-07T13:04:02;12.80;99.90
2825;DHT22;1420;51.324;12.344;2023-05-07T13:06:29;13.00;99.90
2825;DHT22;1420;51.324;12.344;2023-05-07T13:08:56;12.90;99.90
2825;DHT22;1420;51.324;12.344;2023-05-07T13:11:23;12.80;99.90
2825;DHT22;1420;51.324;12.344;2023-05-07T13:13:50;12.80;99.90
2825;DHT22;1420;51.324;12.344;2023-05-07T13:16:18;13.20;99.90
2825;DHT22;1420;51.324;12.344;2023-05-07T13:18:46;13.40;99.90
2825;DHT22;1420;51.324;12.344;2023-05-07T13:21:13;13.40;99.90
2825;DHT22;1420;51.324;12.344;2023-05-07T13:23:40;13.60;99.90
2825;DHT22;1420;51.324;12.344;2023-05-07T13:26:08;14.00;99.90
2825;DHT22;1420;51.324;12.344;2023-05-07T13:28:35;14.00;99.90
2825;DHT22;1420;51.324;12.344;2023-05-07T13:31:03;14.20;99.90
2825;DHT22;1420;51.324;12.344;2023-05-07T13:33:30;13.90;99.90
2825;DHT22;1420;51.324;12.344;2023-05-07T13:35:58;13.60;99.90
2825;DHT22;1420;51.324;12.344;2023-05-07T13:38:25;13.60;99.90
2825;DHT22;1420;51.324;12.344;2023-05-07T13:40:52;13.80;99.90
2825;DHT22;1420;51.324;12.344;2023-05-07T13:43:19;13.70;99.90
2825;DHT22;1420;51.324;12.344;2023-05-07T13:45:47;13.90;99.90
2825;DHT22;1420;51.324;12.344;2023-05-07T13:48:14;13.90;99.90
2825;DHT22;1420;51.324;12.344;2023-05-07T13:50:42;13.30;99.90
2825;DHT22;1420;51.324;12.344;2023-05-07T13:53:10;13.40;99.90
2825;DHT22;1420;51.324;12.344;2023-05-07T13:55:37;13.40;99.90
2825;DHT22;1420;51.324;12.344;2023-05-07T13:58:05;13.60;99.90
2825;DHT22;1420;51.324;12.344;2023-05-07T14:00:33;13.60;99.90
2825;DHT22;1420;51.324;12.344;2023-05-07T14:03:00;13.60;99.90
2825;DHT22;1420;51.324;12.344;2023-05-07T14:05:28;13.60;99.90
2825;DHT22;1420;51.324;12.344;2023-05-07T14:07:56;13.30;99.90
2825;DHT22;1420;51.324;12.344;2023-05-07T14:10:23;13.50;99.90
2825;DHT22;1420;51.324;12.344;2023-05-07T14:12:51;13.60;99.90
2825;DHT22;1420;51.324;12.344;2023-05-07T14:15:18;13.50;99.90
2825;DHT22;1420;51.324;12.344;2023-05-07T14:17:45;13.60;99.90
2825;DHT22;1420;51.324;12.344;2023-05-07T14:20:13;13.60;99.90
2825;DHT22;1420;51.324;12.344;2023-05-07T14:22:40;13.80;99.90
2825;DHT22;1420;51.324;12.344;2023-05-07T14:25:07;13.50;99.90
2825;DHT22;1420;51.324;12.344;2023-05-07T14:27:35;13.60;99.90
2825;DHT22;1420;51.324;12.344;2023-05-07T14:30:04;13.60;99.90
2825;DHT22;1420;51.324;12.344;2023-05-07T14:32:32;13.50;99.90
2825;DHT22;1420;51.324;12.344;2023-05-07T14:34:58;13.60;99.90
2825;DHT22;1420;51.324;12.344;2023-05-07T14:37:26;13.60;99.90
2825;DHT22;1420;51.324;12.344;2023-05-07T14:39:54;13.90;99.90
2825;DHT22;1420;51.324;12.344;2023-05-07T14:42:21;13.90;99.90
2825;DHT22;1420;51.324;12.344;2023-05-07T14:44:49;13.90;99.90
2825;DHT22;1420;51.324;12.344;2023-05-07T14:47:17;13.90;99.90
2825;DHT22;1420;51.324;12.344;2023-05-07T14:49:44;13.80;99.90
2825;DHT22;1420;51.324;12.344;2023-05-07T14:52:12;13.80;99.90
2825;DHT22;1420;51.324;12.344;2023-05-07T14:54:39;13.70;99.90
2825;DHT22;1420;51.324;12.344;2023-05-07T14:57:07;13.90;99.90
2825;DHT22;1420;51.324;12.344;2023-05-07T14:59:33;13.80;99.90
2825;DHT22;1420;51.324;12.344;2023-05-07T15:02:01;14.10;99.90
2825;DHT22;1420;51.324;12.344;2023-05-07T15:04:29;14.00;99.90
2825;DHT22;1420;51.324;12.344;2023-05-07T15:06:56;13.90;99.90
2825;DHT22;1420;51.324;12.344;2023-05-07T15:09:23;14.00;99.90
2825;DHT22;1420;51.324;12.344;2023-05-07T15:11:50;13.90;99.90
2825;DHT22;1420;51.324;12.344;2023-05-07T15:14:18;13.90;99.90
2825;DHT22;1420;51.324;12.344;2023-05-07T15:16:45;13.90;99.90
2825;DHT22;1420;51.324;12.344;2023-05-07T15:19:12;13.80;99.90
2825;DHT22;1420;51.324;12.344;2023-05-07T15:21:39;13.70;99.90
2825;DHT22;1420;51.324;12.344;2023-05-07T15:24:07;13.50;99.90
2825;DHT22;1420;51.324;12.344;2023-05-07T15:26:34;13.50;99.90
2825;DHT22;1420;51.324;12.344;2023-05-07T15:29:01;13.40;99.90
2825;DHT22;1420;51.324;12.344;2023-05-07T15:31:29;13.30;99.90
2825;DHT22;1420;51.324;12.344;2023-05-07T15:33:56;13.60;99.90
2825;DHT22;1420;51.324;12.344;2023-05-07T15:36:23;13.80;99.90
2825;DHT22;1420;51.324;12.344;2023-05-07T15:38:51;14.20;99.90
2825;DHT22;1420;51.324;12.344;2023-05-07T15:41:19;13.80;99.90
2825;DHT22;1420;51.324;12.344;2023-05-07T15:43:48;13.80;99.90
2825;DHT22;1420;51.324;12.344;2023-05-07T15:46:18;13.80;99.90
2825;DHT22;1420;51.324;12.344;2023-05-07T15:48:45;13.70;99.90
2825;DHT22;1420;51.324;12.344;2023-05-07T15:51:12;13.50;99.90
2825;DHT22;1420;51.324;12.344;2023-05-07T15:53:40;13.30;99.90
2825;DHT22;1420;51.324;12.344;2023-05-07T15:56:07;13.30;99.90
2825;DHT22;1420;51.324;12.344;2023-05-07T15:58:34;13.30;99.90
2825;DHT22;1420;51.324;12.344;2023-05-07T16:01:02;13.30;99.90
2825;DHT22;1420;51.324;12.344;2023-05-07T16:03:29;13.30;99.90
2825;DHT22;1420;51.324;12.344;2023-05-07T16:05:57;13.20;99.90